Time;durP1;ratioP1;P1;durP2;ratioP2;P2;SDS_P1;SDS_P2;PMS_P1;PMS_P2;Temp;Humidity;BMP_temperature;BMP_pressure;BME280_temperature;BME280_humidity;BME280_pressure;Samples;Min_cycle;Max_cycle;Signal;HPM_P1;HPM_P2
2023/12/05 21:14:57;;;;;;;100.70;46.30;;;;;;;-1.21;94.06;99960.68;105202;1302;542922;-82
2023/12/05 21:19:09;;;;;;;95.90;43.90;;;;;;;-1.27;94.23;99963.33;110270;1272;22374;-84
2023/12/05 21:23:02;;;;;;;92.70;46.20;;;;;;;-1.28;94.35;99962.79;110281;1279;23599;-84
2023/12/05 21:26:36;;;;;;;107.80;50.10;;;;;;;-1.27;94.31;99969.67;111180;1267;22261;-83
2023/12/05 21:29:51;;;;;;;94.20;45.40;;;;;;;-1.30;93.95;99966.88;109182;1260;205156;-85
2023/12/05 21:33:25;;;;;;;105.70;47.80;;;;;;;-1.33;94.05;99967.14;109182;1260;22595;-85
2023/12/05 21:36:57;;;;;;;97.60;43.70;;;;;;;-1.35;94.39;99967.63;111529;1260;22277;-87
2023/12/05 21:40:09;;;;;;;92.90;41.90;;;;;;;-1.36;94.13;99960.13;111575;1260;22335;-86
2023/12/05 21:44:02;;;;;;;88.50;38.00;;;;;;;-1.44;93.57;99965.30;111570;1260;22430;-87
2023/12/05 21:48:26;;;;;;;86.10;38.10;;;;;;;-1.54;93.60;99962.64;110508;1260;23410;-88
2023/12/05 21:51:39;;;;;;;88.20;36.90;;;;;;;-1.62;93.57;99963.56;110616;1260;22543;-84
2023/12/05 21:55:14;;;;;;;99.30;39.60;;;;;;;-1.66;94.01;99964.92;109335;1261;22561;-85
2023/12/05 21:59:53;;;;;;;95.80;42.70;;;;;;;-1.72;93.60;99963.26;110566;1260;25341;-85
2023/12/05 22:03:13;;;;;;;103.80;48.20;;;;;;;-1.73;93.93;99961.15;111555;1260;23088;-86
2023/12/05 22:06:29;;;;;;;106.90;48.00;;;;;;;-1.75;93.94;99960.54;108992;1261;23389;-84
2023/12/05 22:10:21;;;;;;;111.50;49.90;;;;;;;-1.79;93.89;99962.21;109366;1267;25495;-85
2023/12/05 22:13:15;;;;;;;112.30;50.90;;;;;;;-1.81;93.86;99966.92;109196;1267;22659;-84
2023/12/05 22:17:20;;;;;;;113.60;48.50;;;;;;;-1.83;93.94;99974.05;109112;1267;22728;-86
2023/12/05 22:20:52;;;;;;;116.70;48.60;;;;;;;-1.83;93.98;99982.34;111495;1267;22167;-85
2023/12/05 22:24:44;;;;;;;111.00;48.60;;;;;;;-1.86;93.70;99991.19;110003;1268;22553;-85
2023/12/05 22:28:36;;;;;;;101.20;44.70;;;;;;;-1.94;93.58;99987.17;111604;1260;22834;-85
2023/12/05 22:32:10;;;;;;;97.10;40.20;;;;;;;-1.97;93.58;99993.69;111629;1260;22263;-84
2023/12/05 22:35:43;;;;;;;88.40;37.50;;;;;;;-2.00;93.38;99991.45;111624;1267;22272;-85
2023/12/05 22:38:38;;;;;;;86.00;36.30;;;;;;;-2.02;93.58;99992.09;111480;1266;22229;-85
2023/12/05 22:41:50;;;;;;;86.60;37.20;;;;;;;-2.03;93.57;99991.38;111589;1262;22142;-84
2023/12/05 22:44:43;;;;;;;89.10;38.40;;;;;;;-2.08;93.38;99999.37;111621;1263;22153;-85
2023/12/05 22:48:18;;;;;;;86.50;38.20;;;;;;;-2.12;93.48;99999.56;111555;1265;22107;-84
2023/12/05 22:55:55;;;;;;;94.30;40.60;;;;;;;-2.19;93.03;99987.34;110624;1267;22704;-85
2023/12/05 22:58:50;;;;;;;102.80;47.90;;;;;;;-2.20;93.13;99989.21;108987;1264;22553;-85
2023/12/05 23:02:34;;;;;;;106.50;44.70;;;;;;;-2.26;93.23;99989.48;108990;1267;23917;-85
2023/12/05 23:05:47;;;;;;;110.90;47.80;;;;;;;-2.28;93.12;100002.62;111510;1260;22155;-86
2023/12/05 23:09:00;;;;;;;107.70;48.20;;;;;;;-2.32;93.02;100008.25;111348;1261;22192;-86
2023/12/05 23:13:16;;;;;;;101.20;45.30;;;;;;;-2.34;92.88;100005.31;111487;1267;22086;-84
2023/12/05 23:16:30;;;;;;;104.50;43.30;;;;;;;-2.34;93.19;100001.02;111509;1267;22107;-85
2023/12/05 23:20:42;;;;;;;106.90;48.10;;;;;;;-2.32;93.37;99998.65;105666;1296;544338;-85
2023/12/05 23:23:54;;;;;;;123.70;53.00;;;;;;;-2.33;93.42;99994.90;107565;1283;22558;-84
2023/12/05 23:27:28;;;;;;;132.80;57.70;;;;;;;-2.31;93.50;99992.31;108017;1273;23887;-82
2023/12/05 23:31:02;;;;;;;133.80;62.10;;;;;;;-2.32;93.22;99992.64;107923;1277;25376;-84
2023/12/05 23:34:35;;;;;;;125.70;56.40;;;;;;;-2.36;92.98;99997.50;107789;1271;288064;-84
2023/12/05 23:38:09;;;;;;;116.60;49.80;;;;;;;-2.45;92.60;99992.85;108384;1273;22549;-85
2023/12/05 23:41:22;;;;;;;118.10;50.10;;;;;;;-2.48;93.11;99990.13;108418;1264;22574;-85
2023/12/05 23:44:55;;;;;;;113.10;52.70;;;;;;;-2.47;93.17;99991.92;108592;1264;25429;-85
2023/12/05 23:48:23;;;;;;;129.80;54.90;;;;;;;-2.49;92.89;99988.50;105217;1301;543795;-86
2023/12/05 23:51:55;;;;;;;122.70;53.60;;;;;;;-2.53;93.09;99991.26;107578;1282;22579;-85
2023/12/05 23:54:50;;;;;;;129.70;51.60;;;;;;;-2.55;92.96;99988.91;108486;1271;23287;-84
2023/12/05 23:58:48;;;;;;;116.60;47.20;;;;;;;-2.63;92.18;99985.58;108886;1269;23783;-85
